Time;durP1;ratioP1;P1;durP2;ratioP2;P2;SDS_P1;SDS_P2;PMS_P1;PMS_P2;Temp;Humidity;BMP_temperature;BMP_pressure;BME280_temperature;BME280_humidity;BME280_pressure;Samples;Min_cycle;Max_cycle;Signal;HPM_P1;HPM_P2
2022/06/06 00:01:38;;;;;;;;;;;;;;;13.32;100.00;101306.88;5088259;28;19921;-35
2022/06/06 00:04:03;;;;;;;;;;;;;;;13.31;100.00;101299.75;5094188;28;19926;-36
2022/06/06 00:06:28;;;;;;;;;;;;;;;13.24;100.00;101293.41;5075416;28;20007;-34
2022/06/06 00:08:53;;;;;;;;;;;;;;;13.22;100.00;101291.91;5091364;28;19932;-36
2022/06/06 00:11:19;;;;;;;;;;;;;;;13.27;100.00;101287.66;5092767;28;19921;-34
2022/06/06 00:13:45;;;;;;;;;;;;;;;13.30;100.00;101284.59;5070437;28;20042;-35
2022/06/06 00:16:10;;;;;;;;;;;;;;;13.29;100.00;101288.28;5086997;28;20003;-33
2022/06/06 00:18:35;;;;;;;;;;;;;;;13.32;100.00;101285.25;5089767;28;19920;-34
2022/06/06 00:21:01;;;;;;;;;;;;;;;13.34;100.00;101277.75;5074727;28;20031;-33
2022/06/06 00:23:26;;;;;;;;;;;;;;;13.34;100.00;101285.88;5090966;28;19931;-33
2022/06/06 00:25:53;;;;;;;;;;;;;;;13.32;100.00;101290.66;5095815;28;20423;-33
2022/06/06 00:28:18;;;;;;;;;;;;;;;13.34;100.00;101277.75;5096238;28;19916;-34
2022/06/06 00:30:43;;;;;;;;;;;;;;;13.32;100.00;101274.44;5085766;28;19935;-33
2022/06/06 00:35:57;;;;;;;;;;;;;;;13.32;100.00;101262.75;5084827;28;19928;-34
2022/06/06 00:38:23;;;;;;;;;;;;;;;13.32;100.00;101260.91;5083959;28;19969;-34
2022/06/06 00:40:49;;;;;;;;;;;;;;;13.29;100.00;101258.56;5105202;28;19924;-34
2022/06/06 00:43:14;;;;;;;;;;;;;;;13.30;100.00;101262.13;5085582;28;19965;-33
2022/06/06 00:45:39;;;;;;;;;;;;;;;13.33;100.00;101257.16;5102130;28;19955;-34
2022/06/06 00:48:11;;;;;;;;;;;;;;;13.32;100.00;101254.63;5087242;28;19920;-33
2022/06/06 00:50:54;;;;;;;;;;;;;;;13.29;100.00;101263.97;5095217;28;20007;-35
2022/06/06 00:53:26;;;;;;;;;;;;;;;13.35;100.00;101271.34;5092439;28;19949;-34
2022/06/06 00:55:52;;;;;;;;;;;;;;;13.33;100.00;101254.47;5071840;28;19920;-35
2022/06/06 00:58:18;;;;;;;;;;;;;;;13.34;100.00;101258.81;5075438;28;19921;-33
2022/06/06 01:00:44;;;;;;;;;;;;;;;13.37;100.00;101250.34;5094666;28;19963;-33
2022/06/06 01:03:09;;;;;;;;;;;;;;;13.35;100.00;101251.59;5085805;28;19928;-33
2022/06/06 01:05:35;;;;;;;;;;;;;;;13.36;100.00;101254.06;5083632;28;19977;-34
2022/06/06 01:08:00;;;;;;;;;;;;;;;13.38;100.00;101256.59;5089145;28;19925;-32
2022/06/06 01:10:25;;;;;;;;;;;;;;;13.33;100.00;101259.88;5085114;28;19921;-36
2022/06/06 01:12:52;;;;;;;;;;;;;;;13.38;100.00;101252.03;5085280;28;20233;-33
2022/06/06 01:15:18;;;;;;;;;;;;;;;13.42;100.00;101251.66;5065872;28;19916;-35
2022/06/06 01:17:46;;;;;;;;;;;;;;;13.43;100.00;101247.91;5065869;28;19955;-33
2022/06/06 01:20:14;;;;;;;;;;;;;;;13.42;100.00;101243.53;5084734;28;19947;-34
2022/06/06 01:22:39;;;;;;;;;;;;;;;13.44;100.00;101246.88;5085197;28;19920;-32
2022/06/06 01:25:23;;;;;;;;;;;;;;;13.49;100.00;101242.56;5084023;28;19923;-35
2022/06/06 01:27:54;;;;;;;;;;;;;;;13.48;100.00;101229.25;5085603;28;19984;-33
2022/06/06 01:30:23;;;;;;;;;;;;;;;13.50;100.00;101229.88;5083296;28;19974;-33
2022/06/06 01:32:50;;;;;;;;;;;;;;;13.47;100.00;101224.88;5088856;28;20003;-35
2022/06/06 01:35:24;;;;;;;;;;;;;;;13.42;100.00;101228.13;5102051;28;19968;-35
2022/06/06 01:37:49;;;;;;;;;;;;;;;13.44;100.00;101227.97;5101345;28;19946;-35
2022/06/06 01:40:15;;;;;;;;;;;;;;;13.38;100.00;101235.81;5069027;28;19928;-36
2022/06/06 01:42:48;;;;;;;;;;;;;;;13.38;100.00;101230.41;5083460;28;19917;-36
2022/06/06 01:45:33;;;;;;;;;;;;;;;13.44;100.00;101231.50;5066986;28;19920;-37
2022/06/06 01:48:13;;;;;;;;;;;;;;;13.40;100.00;101224.78;5073391;28;19917;-36
2022/06/06 01:50:39;;;;;;;;;;;;;;;13.48;100.00;101223.84;5075841;28;19943;-36
2022/06/06 01:53:06;;;;;;;;;;;;;;;13.43;100.00;101227.13;5065780;28;19924;-34
2022/06/06 01:55:32;;;;;;;;;;;;;;;13.45;100.00;101222.34;5082838;28;19928;-34
2022/06/06 01:57:58;;;;;;;;;;;;;;;13.49;100.00;101225.53;5083171;28;19920;-33
2022/06/06 02:00:23;;;;;;;;;;;;;;;13.51;100.00;101223.47;5065575;28;19931;-33
2022/06/06 02:02:49;;;;;;;;;;;;;;;13.50;100.00;101221.78;5083798;28;20012;-37
2022/06/06 02:05:14;;;;;;;;;;;;;;;13.51;100.00;101218.06;5097467;28;19929;-34
2022/06/06 02:07:40;;;;;;;;;;;;;;;13.49;100.00;101209.31;5103035;28;19920;-36
2022/06/06 02:10:09;;;;;;;;;;;;;;;13.50;100.00;101210.97;5099493;28;20407;-34
2022/06/06 02:12:35;;;;;;;;;;;;;;;13.48;100.00;101213.00;5082664;28;19992;-33
2022/06/06 02:15:00;;;;;;;;;;;;;;;13.48;100.00;101210.31;5103156;28;19927;-35
2022/06/06 02:17:25;;;;;;;;;;;;;;;13.48;100.00;101213.00;5101738;28;19920;-36
2022/06/06 02:19:50;;;;;;;;;;;;;;;13.49;100.00;101220.94;5089579;28;20272;-35
2022/06/06 02:22:15;;;;;;;;;;;;;;;13.50;100.00;101219.06;5064607;28;19927;-33
2022/06/06 02:24:41;;;;;;;;;;;;;;;13.51;100.00;101223.47;5082834;28;19920;-32
2022/06/06 02:27:06;;;;;;;;;;;;;;;13.51;100.00;101212.66;5082419;28;19951;-34
2022/06/06 02:29:32;;;;;;;;;;;;;;;13.48;100.00;101216.59;5064742;28;19965;-34
2022/06/06 02:31:57;;;;;;;;;;;;;;;13.48;100.00;101218.41;5089872;28;19989;-35
2022/06/06 02:34:23;;;;;;;;;;;;;;;13.46;100.00;101215.09;5109221;22;19983;-78
2022/06/06 02:36:48;;;;;;;;;;;;;;;13.46;100.00;101217.81;5053733;28;19924;-79
2022/06/06 02:39:13;;;;;;;;;;;;;;;13.46;100.00;101215.09;5053716;28;19917;-78
2022/06/06 02:41:39;;;;;;;;;;;;;;;13.50;100.00;101216.38;5051401;28;19917;-78
2022/06/06 02:44:04;;;;;;;;;;;;;;;13.48;100.00;101207.59;5052413;28;19921;-79
2022/06/06 02:46:29;;;;;;;;;;;;;;;13.47;100.00;101206.78;5054245;28;20031;-80
2022/06/06 02:48:54;;;;;;;;;;;;;;;13.47;100.00;101200.53;5052796;28;19924;-79
2022/06/06 02:51:20;;;;;;;;;;;;;;;13.45;100.00;101192.59;5036108;28;19924;-76
2022/06/06 02:53:45;;;;;;;;;;;;;;;13.47;100.00;101192.44;5051018;28;20284;-80
2022/06/06 02:56:10;;;;;;;;;;;;;;;13.47;100.00;101190.56;5052605;28;20270;-79
2022/06/06 02:58:36;;;;;;;;;;;;;;;13.45;100.00;101192.59;5054145;28;20241;-77
2022/06/06 03:01:04;;;;;;;;;;;;;;;13.45;100.00;101187.19;5052054;28;19924;-78
2022/06/06 03:03:30;;;;;;;;;;;;;;;13.43;100.00;101201.94;5051594;28;20407;-77
2022/06/06 03:06:18;;;;;;;;;;;;;;;13.41;100.00;101202.16;5065923;28;19921;-76
2022/06/06 03:09:02;;;;;;;;;;;;;;;13.44;100.00;101203.63;5047792;28;20274;-77
2022/06/06 03:11:45;;;;;;;;;;;;;;;13.45;100.00;101205.28;5046415;28;19931;-76
2022/06/06 03:14:16;;;;;;;;;;;;;;;13.46;100.00;101207.81;5049169;28;19924;-78
2022/06/06 03:22:44;;;;;;;;;;;;;;;13.42;100.00;101205.69;5045057;28;19975;-77
2022/06/06 03:25:20;;;;;;;;;;;;;;;13.39;100.00;101198.78;5029476;28;20393;-78
2022/06/06 03:27:45;;;;;;;;;;;;;;;13.39;100.00;101196.91;5037016;28;20618;-79
2022/06/06 03:30:14;;;;;;;;;;;;;;;13.41;100.00;101204.00;5049228;28;19943;-79
2022/06/06 03:32:59;;;;;;;;;;;;;;;13.44;100.00;101206.34;5038582;28;19916;-81
2022/06/06 03:35:31;;;;;;;;;;;;;;;13.44;100.00;101201.75;5072039;28;19994;-80
2022/06/06 03:37:59;;;;;;;;;;;;;;;13.46;100.00;101209.69;5074724;28;20296;-78
2022/06/06 03:40:43;;;;;;;;;;;;;;;13.51;100.00;101207.25;5056242;28;19979;-78
2022/06/06 03:43:11;;;;;;;;;;;;;;;13.52;100.00;101209.75;5072637;28;19962;-79
2022/06/06 03:45:55;;;;;;;;;;;;;;;13.54;100.00;101198.75;5074332;28;19921;-78
2022/06/06 03:48:28;;;;;;;;;;;;;;;13.52;100.00;101204.34;5072883;28;19916;-78
2022/06/06 03:50:53;;;;;;;;;;;;;;;13.58;100.00;101197.31;5072442;28;19999;-79
2022/06/06 03:53:23;;;;;;;;;;;;;;;13.63;100.00;101191.34;5072502;28;19959;-78
2022/06/06 03:55:51;;;;;;;;;;;;;;;13.66;100.00;101193.66;5053208;28;20065;-78
2022/06/06 03:58:17;;;;;;;;;;;;;;;13.67;100.00;101200.75;5053168;28;20019;-79
2022/06/06 04:00:44;;;;;;;;;;;;;;;13.67;100.00;101196.16;5036688;28;19984;-79
2022/06/06 04:03:11;;;;;;;;;;;;;;;13.65;100.00;101202.81;5068176;28;20615;-79
2022/06/06 04:05:36;;;;;;;;;;;;;;;13.63;100.00;101205.69;5079158;28;20310;-79
2022/06/06 04:08:05;;;;;;;;;;;;;;;13.65;100.00;101203.63;5076831;28;20778;-78
2022/06/06 04:10:52;;;;;;;;;;;;;;;13.59;100.00;101205.25;5063468;28;19956;-77
2022/06/06 04:13:24;;;;;;;;;;;;;;;13.60;100.00;101204.19;5075877;28;19951;-78
2022/06/06 04:15:50;;;;;;;;;;;;;;;13.58;100.00;101208.13;5077259;28;19962;-77
2022/06/06 04:18:18;;;;;;;;;;;;;;;13.58;100.00;101195.44;5074009;28;20302;-78
2022/06/06 04:21:04;;;;;;;;;;;;;;;13.60;100.00;101197.97;5073807;28;20360;-80
2022/06/06 04:23:29;;;;;;;;;;;;;;;13.59;100.00;101199.84;5062507;28;19923;-80
2022/06/06 04:26:13;;;;;;;;;;;;;;;13.57;100.00;101199.19;5073895;28;19916;-78
2022/06/06 04:28:50;;;;;;;;;;;;;;;13.52;100.00;101214.31;5074410;28;19967;-79
2022/06/06 04:31:18;;;;;;;;;;;;;;;13.51;100.00;101204.53;5075033;28;19916;-82
2022/06/06 04:33:46;;;;;;;;;;;;;;;13.50;100.00;101208.25;5055712;28;19920;-77
2022/06/06 04:36:13;;;;;;;;;;;;;;;13.50;100.00;101211.78;5073368;28;19920;-80
2022/06/06 04:38:41;;;;;;;;;;;;;;;13.46;100.00;101215.09;5057148;28;19916;-81
2022/06/06 04:41:12;;;;;;;;;;;;;;;13.43;99.21;101221.72;5075777;28;19916;-80
2022/06/06 04:43:38;;;;;;;;;;;;;;;13.45;98.97;101216.94;5073398;28;19916;-82
2022/06/06 04:46:06;;;;;;;;;;;;;;;13.45;98.24;101218.81;5074283;28;19916;-80
2022/06/06 04:48:32;;;;;;;;;;;;;;;13.47;98.13;101211.34;5072943;28;20583;-78
2022/06/06 04:50:57;;;;;;;;;;;;;;;13.45;97.71;101214.22;5073006;28;20344;-79
2022/06/06 04:53:23;;;;;;;;;;;;;;;13.46;97.83;101215.94;5073727;28;19927;-78
2022/06/06 04:55:49;;;;;;;;;;;;;;;13.47;97.92;101216.75;5073319;28;20026;-79
2022/06/06 04:58:15;;;;;;;;;;;;;;;13.49;97.93;101220.94;5071703;28;19960;-78
2022/06/06 05:00:42;;;;;;;;;;;;;;;13.45;97.84;101218.81;5071722;28;19946;-78
2022/06/06 05:03:07;;;;;;;;;;;;;;;13.37;96.92;101231.41;5072892;28;19927;-79
2022/06/06 05:05:39;;;;;;;;;;;;;;;13.37;95.74;101217.91;5074964;28;19920;-81
2022/06/06 05:08:04;;;;;;;;;;;;;;;13.35;95.33;101230.78;5071612;28;19923;-79
2022/06/06 05:10:37;;;;;;;;;;;;;;;13.36;95.35;101210.81;5073538;28;19920;-77
2022/06/06 05:13:12;;;;;;;;;;;;;;;13.45;95.38;101216.94;5072709;28;20295;-79
2022/06/06 05:15:44;;;;;;;;;;;;;;;13.47;95.34;101214.88;5071654;28;19959;-80
2022/06/06 05:18:13;;;;;;;;;;;;;;;13.50;94.92;101208.25;5071658;28;19916;-81
2022/06/06 05:20:40;;;;;;;;;;;;;;;13.58;94.91;101202.72;5072990;28;19916;-79
2022/06/06 05:23:25;;;;;;;;;;;;;;;13.62;94.82;101209.44;5071518;28;19920;-79
2022/06/06 05:25:53;;;;;;;;;;;;;;;13.71;93.79;101207.44;5073156;28;19970;-77
2022/06/06 05:28:21;;;;;;;;;;;;;;;13.79;93.27;101193.75;5073017;28;19963;-80
2022/06/06 05:30:56;;;;;;;;;;;;;;;13.87;92.51;101203.63;5072822;28;19973;-79
2022/06/06 05:33:24;;;;;;;;;;;;;;;13.97;92.04;101196.00;5071091;28;19972;-82
2022/06/06 05:35:49;;;;;;;;;;;;;;;13.94;90.79;101202.66;5073444;28;19935;-82
2022/06/06 05:38:23;;;;;;;;;;;;;;;13.92;90.35;101199.28;5073231;28;19921;-81
2022/06/06 05:41:07;;;;;;;;;;;;;;;14.04;91.11;101202.31;5073402;28;20179;-79
2022/06/06 05:43:35;;;;;;;;;;;;;;;14.02;90.14;101207.09;5074358;28;19920;-79
2022/06/06 05:46:05;;;;;;;;;;;;;;;13.99;89.88;101204.78;5072664;28;19917;-79
2022/06/06 05:48:34;;;;;;;;;;;;;;;13.92;89.49;101193.88;5070681;28;19924;-78
2022/06/06 05:51:15;;;;;;;;;;;;;;;13.96;89.00;101205.16;5071989;28;19916;-79
2022/06/06 05:53:59;;;;;;;;;;;;;;;13.96;88.66;101210.59;5072279;28;19916;-81
2022/06/06 05:56:24;;;;;;;;;;;;;;;14.05;88.00;101202.09;5071513;28;20007;-81
2022/06/06 05:58:58;;;;;;;;;;;;;;;13.97;87.14;101215.78;5074344;28;19959;-79
2022/06/06 06:01:41;;;;;;;;;;;;;;;13.90;86.94;101206.78;5073127;28;19952;-78
2022/06/06 06:04:25;;;;;;;;;;;;;;;13.87;87.00;101203.63;5076299;28;19945;-79
2022/06/06 06:06:51;;;;;;;;;;;;;;;13.97;87.48;101220.34;5074530;28;19917;-78
2022/06/06 06:09:29;;;;;;;;;;;;;;;14.00;86.60;101203.72;5077697;28;19967;-77
2022/06/06 06:12:08;;;;;;;;;;;;;;;14.00;86.25;101201.03;5077480;28;19951;-79
2022/06/06 06:14:33;;;;;;;;;;;;;;;14.08;86.18;101211.69;5075967;28;19978;-80
2022/06/06 06:16:59;;;;;;;;;;;;;;;14.12;85.67;101206.75;5075419;28;19916;-80
2022/06/06 06:19:26;;;;;;;;;;;;;;;14.20;85.27;101217.44;5075109;28;20308;-77
2022/06/06 06:21:53;;;;;;;;;;;;;;;14.21;83.95;101211.81;5078807;28;20032;-80
2022/06/06 06:24:19;;;;;;;;;;;;;;;14.19;82.84;101204.91;5080107;28;20458;-81
2022/06/06 06:26:45;;;;;;;;;;;;;;;14.17;83.25;101223.25;5076156;28;20318;-80
2022/06/06 06:29:10;;;;;;;;;;;;;;;14.26;83.34;101217.47;5073375;28;19999;-79
2022/06/06 06:31:41;;;;;;;;;;;;;;;14.26;83.19;101225.59;5072309;28;20269;-79
2022/06/06 06:34:11;;;;;;;;;;;;;;;14.22;83.84;101216.19;5074650;28;19943;-80
2022/06/06 06:36:47;;;;;;;;;;;;;;;14.36;83.46;101227.13;5078178;28;20007;-78
2022/06/06 06:39:19;;;;;;;;;;;;;;;14.41;81.77;101230.09;5081653;28;19986;-75
2022/06/06 06:41:47;;;;;;;;;;;;;;;14.58;80.92;101222.50;5078396;28;20019;-77
2022/06/06 06:44:22;;;;;;;;;;;;;;;14.80;78.53;101228.69;5077519;28;19917;-77
2022/06/06 06:47:11;;;;;;;;;;;;;;;14.84;77.70;101229.94;5074599;28;19973;-75
2022/06/06 06:49:43;;;;;;;;;;;;;;;14.68;78.66;101231.94;5071150;28;20372;-78
2022/06/06 06:52:13;;;;;;;;;;;;;;;14.63;78.51;101226.28;5081699;28;19917;-77
2022/06/06 06:54:45;;;;;;;;;;;;;;;14.54;79.29;101221.25;5097174;28;19925;-77
2022/06/06 06:57:19;;;;;;;;;;;;;;;14.70;77.96;101232.59;5078984;28;19923;-78
2022/06/06 06:59:58;;;;;;;;;;;;;;;14.97;77.54;101229.19;5078695;28;19921;-78
2022/06/06 07:08:33;;;;;;;;;;;;;;;16.17;70.98;101246.59;5076317;28;19923;-78
2022/06/06 07:11:16;;;;;;;;;;;;;;;16.30;69.84;101230.31;5075044;28;20000;-78
2022/06/06 07:13:50;;;;;;;;;;;;;;;16.35;69.71;101224.22;5074895;28;20003;-79
2022/06/06 07:16:18;;;;;;;;;;;;;;;16.54;71.17;101236.13;5073727;28;19967;-79
2022/06/06 07:18:44;;;;;;;;;;;;;;;17.37;69.03;101240.88;5071959;28;20415;-80
2022/06/06 07:21:09;;;;;;;;;;;;;;;17.48;66.52;101237.47;5074213;28;19916;-79
2022/06/06 07:23:36;;;;;;;;;;;;;;;18.03;64.76;101232.28;5073777;28;19916;-79
2022/06/06 07:26:01;;;;;;;;;;;;;;;17.37;64.65;101246.31;5073037;28;20365;-77
2022/06/06 07:28:26;;;;;;;;;;;;;;;17.28;65.23;101243.03;5071999;28;19917;-76
2022/06/06 07:31:11;;;;;;;;;;;;;;;17.52;64.32;101244.16;5072616;28;19921;-78
2022/06/06 07:33:42;;;;;;;;;;;;;;;17.13;63.26;101240.56;5072837;28;19927;-81
2022/06/06 07:36:19;;;;;;;;;;;;;;;16.24;66.57;101241.97;5076961;28;20078;-76
2022/06/06 07:39:03;;;;;;;;;;;;;;;15.80;68.47;101247.00;5082445;28;19916;-78
2022/06/06 07:41:47;;;;;;;;;;;;;;;15.50;70.58;101257.31;5098423;28;19923;-80
2022/06/06 07:44:18;;;;;;;;;;;;;;;15.40;71.86;101246.00;5085517;28;20153;-80
2022/06/06 07:46:48;;;;;;;;;;;;;;;16.78;69.68;101249.06;5085973;28;19993;-81
2022/06/06 07:49:26;;;;;;;;;;;;;;;17.59;66.69;101244.94;5089812;28;19928;-79
2022/06/06 07:51:56;;;;;;;;;;;;;;;17.57;65.28;101240.78;5085671;28;19917;-81
2022/06/06 07:54:37;;;;;;;;;;;;;;;17.08;65.40;101243.09;5065095;28;19999;-80
2022/06/06 07:57:18;;;;;;;;;;;;;;;17.45;66.82;101246.88;5092035;28;19917;-81
2022/06/06 08:00:03;;;;;;;;;;;;;;;17.78;62.84;101259.50;5064623;28;20247;-81
2022/06/06 08:02:31;;;;;;;;;;;;;;;17.82;62.69;101249.00;5062907;28;19917;-78
2022/06/06 08:05:20;;;;;;;;;;;;;;;18.15;63.37;101233.25;5067682;28;19916;-78
2022/06/06 08:07:57;;;;;;;;;;;;;;;18.69;61.78;101249.09;5062226;28;19943;-78
2022/06/06 08:10:25;;;;;;;;;;;;;;;18.46;59.91;101239.69;5070554;28;19928;-79
2022/06/06 08:12:56;;;;;;;;;;;;;;;17.80;61.98;101240.22;5075574;28;19925;-79
2022/06/06 08:15:25;;;;;;;;;;;;;;;17.54;63.62;101251.03;5076081;28;19921;-80
2022/06/06 08:17:53;;;;;;;;;;;;;;;16.89;65.72;101248.38;5087777;28;19917;-80
2022/06/06 08:20:27;;;;;;;;;;;;;;;16.69;65.99;101263.88;5090625;28;20287;-76
2022/06/06 08:22:53;;;;;;;;;;;;;;;16.12;67.47;101239.06;5076615;28;19920;-79
2022/06/06 08:25:20;;;;;;;;;;;;;;;15.75;68.71;101254.09;5073831;28;20007;-77
2022/06/06 08:27:50;;;;;;;;;;;;;;;15.54;70.39;101247.75;5075478;28;19917;-76
2022/06/06 08:30:15;;;;;;;;;;;;;;;15.20;71.61;101240.53;5075237;28;19924;-78
2022/06/06 08:32:42;;;;;;;;;;;;;;;15.20;72.14;101253.25;5077700;28;19921;-77
2022/06/06 08:35:07;;;;;;;;;;;;;;;15.18;73.17;101264.31;5075365;28;20288;-79
2022/06/06 08:37:46;;;;;;;;;;;;;;;15.02;74.11;101243.78;5076040;28;19928;-79
2022/06/06 08:40:17;;;;;;;;;;;;;;;15.97;73.27;101247.41;5076999;28;20447;-78
2022/06/06 08:43:01;;;;;;;;;;;;;;;16.70;68.73;101230.22;5076637;28;20372;-78
2022/06/06 08:45:45;;;;;;;;;;;;;;;16.52;66.76;101236.31;5075631;28;19927;-78
2022/06/06 08:48:29;;;;;;;;;;;;;;;16.81;66.80;101212.47;5079726;28;19974;-77
2022/06/06 08:51:01;;;;;;;;;;;;;;;17.71;63.91;101221.41;5066963;28;19916;-78
2022/06/06 08:53:43;;;;;;;;;;;;;;;17.64;63.69;101226.09;5088949;28;19920;-79
2022/06/06 08:56:28;;;;;;;;;;;;;;;17.72;64.47;101223.09;5088127;28;19916;-79
2022/06/06 08:59:12;;;;;;;;;;;;;;;17.89;63.21;101217.13;5088958;28;19916;-79
2022/06/06 09:01:56;;;;;;;;;;;;;;;18.51;62.56;101220.78;5089956;28;19924;-81
2022/06/06 09:04:22;;;;;;;;;;;;;;;18.78;60.64;101225.97;5089072;28;19921;-78
2022/06/06 09:06:47;;;;;;;;;;;;;;;18.64;60.87;101220.63;5090504;28;19921;-81
2022/06/06 09:09:36;;;;;;;;;;;;;;;18.19;60.23;101234.50;5086835;28;19920;-79
2022/06/06 09:12:20;;;;;;;;;;;;;;;18.25;61.09;101226.47;5087547;28;19917;-77
2022/06/06 09:14:51;;;;;;;;;;;;;;;18.13;60.96;101227.19;5085541;28;19917;-81
2022/06/06 09:17:22;;;;;;;;;;;;;;;17.67;62.68;101224.81;5066891;28;19921;-81
2022/06/06 09:19:53;;;;;;;;;;;;;;;18.35;61.37;101211.28;5080843;28;19924;-81
2022/06/06 09:22:18;;;;;;;;;;;;;;;18.51;60.34;101209.88;5084071;28;19992;-81
2022/06/06 09:24:47;;;;;;;;;;;;;;;18.84;59.88;101211.41;5083369;28;19939;-80
2022/06/06 09:27:50;;;;;;;;;;;;;;;18.68;61.10;101209.28;5063859;28;19932;-80
2022/06/06 09:30:36;;;;;;;;;;;;;;;18.57;61.33;101217.13;5048596;28;19928;-75
2022/06/06 09:33:40;;;;;;;;;;;;;;;18.64;61.59;101208.88;5051315;28;20579;-75
2022/06/06 09:36:14;;;;;;;;;;;;;;;18.62;61.28;101211.84;5005271;28;19953;-73
2022/06/06 09:38:53;;;;;;;;;;;;;;;18.43;61.19;101204.69;4994964;28;20274;-75
2022/06/06 09:41:22;;;;;;;;;;;;;;;17.47;63.55;101212.13;5041583;28;19956;-74
2022/06/06 09:43:56;;;;;;;;;;;;;;;17.28;64.98;101208.50;5071693;28;19927;-75
2022/06/06 09:46:36;;;;;;;;;;;;;;;17.27;65.14;101215.00;5061705;28;19928;-74
2022/06/06 09:49:16;;;;;;;;;;;;;;;17.24;66.26;101214.56;5068809;28;19916;-75
2022/06/06 09:51:46;;;;;;;;;;;;;;;17.37;66.29;101219.94;5069181;28;19952;-77
2022/06/06 09:59:47;;;;;;;;;;;;;;;17.52;66.09;101197.88;5053372;28;19948;-76
2022/06/06 10:02:13;;;;;;;;;;;;;;;17.40;67.19;101203.19;5058784;28;20322;-76
2022/06/06 10:04:56;;;;;;;;;;;;;;;16.96;67.74;101202.16;5072373;28;20041;-76
2022/06/06 10:07:40;;;;;;;;;;;;;;;17.02;69.06;101195.03;5073805;28;19916;-74
2022/06/06 10:10:08;;;;;;;;;;;;;;;16.98;69.19;101199.22;5073483;28;19923;-78
2022/06/06 10:12:33;;;;;;;;;;;;;;;16.87;70.42;101190.66;5073085;28;19917;-76
2022/06/06 10:15:14;;;;;;;;;;;;;;;16.90;71.45;101197.56;5072908;28;19948;-76
2022/06/06 10:17:40;;;;;;;;;;;;;;;16.86;71.97;101197.16;5071558;28;20348;-76
2022/06/06 10:20:09;;;;;;;;;;;;;;;16.86;71.41;101208.03;5072697;28;20007;-78
2022/06/06 10:22:40;;;;;;;;;;;;;;;16.81;71.34;101198.88;5071713;28;19948;-77
2022/06/06 10:25:08;;;;;;;;;;;;;;;16.57;71.90;101211.25;5072074;28;20284;-76
2022/06/06 10:27:33;;;;;;;;;;;;;;;16.19;73.53;101198.31;5073103;28;19927;-75
2022/06/06 10:30:16;;;;;;;;;;;;;;;16.20;74.38;101203.56;5073434;28;19916;-77
2022/06/06 10:32:42;;;;;;;;;;;;;;;16.02;73.79;101196.03;5073292;28;19950;-77
2022/06/06 10:35:10;;;;;;;;;;;;;;;15.87;74.33;101195.41;5072814;28;20360;-75
2022/06/06 10:37:54;;;;;;;;;;;;;;;16.00;75.20;101186.44;5073252;28;20007;-75
2022/06/06 10:40:38;;;;;;;;;;;;;;;15.85;74.84;101183.97;5073610;28;19916;-77
2022/06/06 10:43:06;;;;;;;;;;;;;;;16.04;74.57;101203.16;5073637;28;19981;-77
2022/06/06 10:45:35;;;;;;;;;;;;;;;16.05;74.00;101183.09;5072811;28;19955;-77
2022/06/06 10:48:05;;;;;;;;;;;;;;;16.01;74.33;101188.97;5072683;28;20101;-77
2022/06/06 10:53:51;;;;;;;;;;;;;;;15.55;79.70;101189.72;5073472;28;20537;-77
2022/06/06 10:56:19;;;;;;;;;;;;;;;15.47;84.08;101206.19;5072122;28;19962;-77
2022/06/06 10:59:06;;;;;;;;;;;;;;;15.01;88.16;101195.19;5064528;28;20308;-77
2022/06/06 11:01:34;;;;;;;;;;;;;;;14.79;91.14;101200.72;5089603;28;19920;-76
2022/06/06 11:04:18;;;;;;;;;;;;;;;14.53;92.89;101200.59;5057698;28;20430;-76
2022/06/06 11:07:01;;;;;;;;;;;;;;;14.44;94.05;101208.00;5072070;28;19944;-77
2022/06/06 11:09:31;;;;;;;;;;;;;;;14.53;94.14;101200.59;5062849;28;19920;-76
2022/06/06 11:11:56;;;;;;;;;;;;;;;14.70;94.82;101191.94;5072640;28;20411;-77
2022/06/06 11:14:27;;;;;;;;;;;;;;;14.91;95.23;101190.16;5075666;28;20003;-77
2022/06/06 11:16:52;;;;;;;;;;;;;;;14.90;93.63;101180.34;5077509;28;19963;-76
2022/06/06 11:19:33;;;;;;;;;;;;;;;14.97;92.54;101193.94;5074065;28;19921;-76
2022/06/06 11:22:17;;;;;;;;;;;;;;;14.95;90.44;101187.88;5076502;28;19916;-75
2022/06/06 11:24:51;;;;;;;;;;;;;;;15.02;90.04;101176.03;5077451;28;19916;-76
2022/06/06 11:27:19;;;;;;;;;;;;;;;15.19;90.32;101173.78;5076184;28;19916;-76
2022/06/06 11:29:44;;;;;;;;;;;;;;;15.39;90.14;101183.84;5076595;28;19969;-75
2022/06/06 11:32:25;;;;;;;;;;;;;;;15.39;87.98;101175.72;5076453;28;19947;-77
2022/06/06 11:34:57;;;;;;;;;;;;;;;15.42;88.50;101186.16;5074751;28;19924;-76
2022/06/06 11:37:25;;;;;;;;;;;;;;;15.34;89.16;101185.28;5075765;28;19999;-76
2022/06/06 11:39:51;;;;;;;;;;;;;;;15.04;90.06;101175.84;5075958;28;19986;-78
2022/06/06 11:42:22;;;;;;;;;;;;;;;14.96;90.81;101178.72;5076951;28;20424;-76
2022/06/06 11:45:06;;;;;;;;;;;;;;;14.86;90.12;101173.69;5076500;28;20365;-76
2022/06/06 11:47:50;;;;;;;;;;;;;;;14.85;89.46;101178.28;5077089;28;20276;-76
2022/06/06 11:50:29;;;;;;;;;;;;;;;14.81;89.50;101170.75;5077248;28;19916;-74
2022/06/06 11:53:03;;;;;;;;;;;;;;;14.55;91.77;101176.84;5074998;28;19935;-77
2022/06/06 11:55:32;;;;;;;;;;;;;;;14.13;95.48;101181.34;5080954;28;19917;-75
2022/06/06 11:58:16;;;;;;;;;;;;;;;13.88;97.17;101180.97;5058028;28;19921;-74
2022/06/06 12:01:00;;;;;;;;;;;;;;;13.78;98.20;101182.13;5056043;28;19924;-77
2022/06/06 12:03:51;;;;;;;;;;;;;;;13.84;99.50;101175.09;5068860;28;20323;-76
2022/06/06 12:06:21;;;;;;;;;;;;;;;13.82;100.00;101180.72;5074329;28;19940;-76
2022/06/06 12:08:52;;;;;;;;;;;;;;;13.82;100.00;101169.03;5074376;28;20348;-75
2022/06/06 12:11:36;;;;;;;;;;;;;;;13.73;99.40;101162.91;5074203;28;19916;-75
2022/06/06 12:14:20;;;;;;;;;;;;;;;13.76;99.51;101183.34;5075049;28;19991;-76
2022/06/06 12:16:45;;;;;;;;;;;;;;;13.83;100.00;101205.88;5074994;28;19917;-77
2022/06/06 12:19:16;;;;;;;;;;;;;;;13.92;100.00;101198.47;5074714;28;19934;-77
2022/06/06 12:21:48;;;;;;;;;;;;;;;14.00;99.57;101206.44;5074849;28;20001;-77
2022/06/06 12:24:25;;;;;;;;;;;;;;;13.87;98.13;101200.91;5074859;28;19920;-79
2022/06/06 12:27:05;;;;;;;;;;;;;;;14.06;98.72;101205.66;5074721;28;19916;-76
2022/06/06 12:29:49;;;;;;;;;;;;;;;14.11;98.35;101210.47;5074532;28;20331;-76
2022/06/06 12:32:32;;;;;;;;;;;;;;;14.18;98.68;101208.66;5075293;28;19955;-75
2022/06/06 12:35:00;;;;;;;;;;;;;;;14.04;97.91;101205.84;5074752;28;19966;-75
2022/06/06 12:37:26;;;;;;;;;;;;;;;13.80;97.04;101204.41;5074861;28;19916;-75
2022/06/06 12:39:54;;;;;;;;;;;;;;;13.93;97.47;101210.94;5074438;28;20378;-74
2022/06/06 12:42:19;;;;;;;;;;;;;;;13.91;97.99;101207.63;5074248;28;19916;-77
2022/06/06 12:45:03;;;;;;;;;;;;;;;13.63;96.17;101216.50;5074701;28;19995;-77
2022/06/06 12:47:31;;;;;;;;;;;;;;;13.72;96.62;101215.38;5074453;28;20315;-75
2022/06/06 12:50:12;;;;;;;;;;;;;;;13.88;96.81;101213.44;5074167;28;19977;-76
2022/06/06 12:52:57;;;;;;;;;;;;;;;14.05;96.87;101209.38;5072887;28;19995;-77
2022/06/06 12:55:30;;;;;;;;;;;;;;;14.14;95.02;101216.34;5073585;28;19924;-74
2022/06/06 12:57:55;;;;;;;;;;;;;;;14.17;94.51;101220.53;5074125;28;19920;-76
2022/06/06 13:03:17;;;;;;;;;;;;;;;13.95;93.69;101208.88;5073555;28;19943;-76
2022/06/06 13:05:52;;;;;;;;;;;;;;;13.94;93.59;101223.47;5074093;28;20245;-74
2022/06/06 13:08:25;;;;;;;;;;;;;;;13.74;92.74;101210.56;5072551;28;19916;-76
2022/06/06 13:11:07;;;;;;;;;;;;;;;13.76;92.66;101213.94;5072378;28;19999;-75
2022/06/06 13:13:44;;;;;;;;;;;;;;;13.84;92.84;101221.91;5068961;28;20387;-75
2022/06/06 13:16:27;;;;;;;;;;;;;;;13.75;93.04;101225.78;5052677;28;20369;-73
2022/06/06 13:18:55;;;;;;;;;;;;;;;13.67;92.36;101220.50;5089520;28;19928;-74
2022/06/06 13:21:36;;;;;;;;;;;;;;;13.69;93.00;101221.16;5085283;28;20035;-73
2022/06/06 13:24:07;;;;;;;;;;;;;;;13.78;92.34;101225.41;5063152;28;20487;-76